메인 페이지
METAR-TAF:

METAR-TAF

공항 :

라과디아 공항

뉴욕 / 라가디아, 뉴욕, 미국

위도: 40-46-45N, 경도: 073-52-48W, 고도: 6m

현재 날씨관측

예보는 30분 전, 16:51시(UTC)에 발표되었습니다.
무풍
온도 11°C
습도 94%
기압 993 hPa
시정: 1.2km
고도 300ft 상공 흐림
약한이슬비, 박무

METAR: KLGA 141651Z 00000KT 3/4SM -DZ BR OVC003 11/10 A2933 RMK AO2 SFC VIS 1 1/4 SLP933 P0000 T01110100

시각: 12:21 (17:21 UTC)

예보

예보는 2 시간 46분 전, 14:35시(UTC)에 발표되었습니다.
예보 대상 시간: 14일 15시부터 15일 18시까지 (UTC)
여러 방향의 바람 4kt
시정: 3.2km
고도 500ft 상공 흐림
약한이슬비, 박무
일시적
14일 15시부터 14일 17시까지 (UTC)
시정: 1.6km
고도 300ft 상공 구름 많음
박무
14일 1900시부터 (UTC)
12kt
시정: 4.8km
고도 800ft 상공 구름 많음
고도 1200ft 상공 흐림
약한이슬비, 박무
14일 2300시부터 (UTC)
남서20kt, 순간 최대 풍속 32kt
시정: 10km
고도 1500ft 상공 구름 많음
고도 2500ft 상공 흐림
15일 0500시부터 (UTC)
21kt, 순간 최대 풍속 33kt
시정: 10km
고도 3500ft 상공 구름 많음
15일 1100시부터 (UTC)
22kt, 순간 최대 풍속 35kt
시정: 10km
고도 4500ft 상공 구름 많음

TAF: KLGA 141435Z 1415/1518 VRB04KT 2SM -DZ BR OVC005 TEMPO 1415/1417 1SM BR BKN003 FM141900 17012KT 3SM -DZ BR BKN008 OVC012 FM142300 23020G32KT P6SM BKN015 OVC025 FM150500 26021G33KT P6SM BKN035 FM151100 27022G35KT P6SM BKN045

4,000개 이상의 공항 관측 자료 및 예보 (METAR 및 TAF 보고).

지도상에서 검색 가능한 기상관측소가 노란 점과 빨간 점으로 표시되어 있습니다.

기상관측소 명을 보려면 표시 위로 마우스를 이동하세요.

날씨 관측과 예보를 보려면 클릭하세요.

지도 변경 : 확대하려면 엑스 표시가 있는 녹색 버튼, 축소하려면 빼기 표시가 있는 녹색 버튼, 다음 페이지의 지도를 보려면 녹색 화살표를 클릭하세요.


METAR-TAF: